05/09 21:00 更新

3,000ftに雲が少し
4,000ftに雲が散在

地上風: 350°9kt

上空風
13,000ft: 250° 41kt
10,000ft: 250° 36kt
 7,000ft: 290° 15kt
 3,000ft: 320° 21kt

地上: 18℃
上空: 未計測℃

日没: 18:34

RJTJ 091200Z 35009KT 9999 FEW030 SCT040 18/07 Q1005 RMK 1CU030 4SC040 A2968=